createdAt,value
2022-08-07T00:00:39.973Z,96018.38
2022-08-07T00:03:08.750Z,96008.97
2022-08-07T00:05:37.263Z,96012.22
2022-08-07T00:08:05.516Z,96016.81
2022-08-07T00:10:35.997Z,96016.31
2022-08-07T00:13:23.676Z,96014.81
2022-08-07T00:15:55.231Z,96020.34
2022-08-07T00:18:25.116Z,96008.88
2022-08-07T00:20:54.425Z,96009.53
2022-08-07T00:23:22.598Z,96025.72
2022-08-07T00:25:52.144Z,96022.41
2022-08-07T00:28:33.582Z,96024.69
2022-08-07T00:31:12.823Z,96019.75
2022-08-07T00:33:47.610Z,96024.47
2022-08-07T00:36:16.915Z,96021.13
2022-08-07T00:38:44.889Z,96016.50
2022-08-07T00:41:14.696Z,96014.72
2022-08-07T00:43:59.639Z,96012.94
2022-08-07T00:46:33.220Z,96006.53
2022-08-07T00:49:03.075Z,96005.72
2022-08-07T00:51:58.525Z,96008.81
2022-08-07T00:54:20.062Z,95997.81
2022-08-07T00:56:49.946Z,96003.97
2022-08-07T00:59:18.007Z,96003.19
2022-08-07T01:01:50.814Z,95997.22
2022-08-07T01:04:25.853Z,95996.38
2022-08-07T01:06:58.186Z,95993.00
2022-08-07T01:09:35.680Z,95996.66
2022-08-07T01:12:29.954Z,95988.28
2022-08-07T01:15:01.693Z,95993.31
2022-08-07T01:17:34.031Z,95985.50
2022-08-07T01:20:08.872Z,95990.66
2022-08-07T01:22:46.576Z,95997.31
2022-08-07T01:25:39.873Z,95994.53
2022-08-07T01:28:03.960Z,95980.53
2022-08-07T01:30:33.331Z,95985.16
2022-08-07T01:33:02.295Z,95984.00
2022-08-07T01:35:52.563Z,95983.81
2022-08-07T01:38:25.637Z,95975.75
2022-08-07T01:40:56.350Z,95981.22
2022-08-07T01:43:25.940Z,95979.72
2022-08-07T01:45:54.754Z,95977.75
2022-08-07T01:48:30.761Z,95978.22
2022-08-07T01:51:24.708Z,95976.44
2022-08-07T01:54:12.097Z,95977.56
2022-08-07T01:56:49.430Z,95966.22
2022-08-07T01:59:23.625Z,95965.56
2022-08-07T02:02:04.325Z,95955.63
2022-08-07T02:04:55.743Z,95956.47
2022-08-07T02:07:36.123Z,95967.84
2022-08-07T02:10:19.900Z,95960.59
2022-08-07T02:12:50.505Z,95960.28
2022-08-07T02:15:23.156Z,95963.91
2022-08-07T02:17:56.492Z,95956.81
2022-08-07T02:20:25.644Z,95957.78
2022-08-07T02:22:57.570Z,95953.50
2022-08-07T02:26:10.110Z,95952.88
2022-08-07T02:28:25.388Z,95955.00
2022-08-07T02:30:54.763Z,95958.28
2022-08-07T02:33:24.694Z,95941.34
2022-08-07T02:36:28.441Z,95944.63
2022-08-07T02:38:56.708Z,95949.56
2022-08-07T02:41:33.606Z,95944.28
2022-08-07T02:44:06.057Z,95944.13
2022-08-07T02:46:36.904Z,95944.31
2022-08-07T02:49:05.466Z,95941.84
2022-08-07T02:51:42.492Z,95941.69
2022-08-07T02:54:21.318Z,95938.25
2022-08-07T02:56:55.888Z,95939.50
2022-08-07T02:59:28.312Z,95944.97
2022-08-07T03:02:01.113Z,95953.72
2022-08-07T03:04:31.586Z,95947.66
2022-08-07T03:07:07.104Z,95946.81
2022-08-07T03:09:44.659Z,95939.41
2022-08-07T03:12:22.651Z,95938.59
2022-08-07T03:15:02.226Z,95937.94
2022-08-07T03:17:52.743Z,95937.59
2022-08-07T03:20:21.290Z,95937.59
2022-08-07T03:22:50.920Z,95940.72
2022-08-07T03:25:20.908Z,95936.28
2022-08-07T03:27:59.345Z,95941.53
2022-08-07T03:30:39.393Z,95943.31
2022-08-07T03:33:10.582Z,95945.31
2022-08-07T03:35:44.175Z,95946.13
2022-08-07T03:38:20.967Z,95950.94
2022-08-07T03:40:57.467Z,95954.06
2022-08-07T03:43:32.288Z,95946.94
2022-08-07T03:46:02.759Z,95942.53
2022-08-07T03:48:32.983Z,95945.34
2022-08-07T03:51:01.632Z,95947.78
2022-08-07T03:54:02.103Z,95938.56
2022-08-07T03:56:32.725Z,95934.31
2022-08-07T03:59:09.551Z,95934.59
2022-08-07T04:01:45.514Z,95930.66
2022-08-07T04:04:17.421Z,95930.16
2022-08-07T04:06:45.691Z,95932.31
2022-08-07T04:09:15.881Z,95935.13
2022-08-07T04:12:24.393Z,95930.50
2022-08-07T04:14:38.542Z,95931.97
2022-08-07T04:17:20.455Z,95930.31
2022-08-07T04:20:01.259Z,95933.59
2022-08-07T04:22:30.000Z,95931.94
2022-08-07T04:25:00.974Z,95939.66
2022-08-07T04:27:35.830Z,95931.47
2022-08-07T04:30:21.477Z,95932.78
2022-08-07T04:33:02.590Z,95932.28
2022-08-07T04:35:35.766Z,95940.53
2022-08-07T04:38:07.853Z,95943.47
2022-08-07T04:40:36.604Z,95937.88
2022-08-07T04:43:22.120Z,95935.75
2022-08-07T04:46:26.039Z,95942.66
2022-08-07T04:49:18.358Z,95948.22
2022-08-07T04:52:01.503Z,95943.47
2022-08-07T04:54:35.775Z,95929.13
2022-08-07T04:58:12.545Z,95939.19
2022-08-07T05:00:11.845Z,95933.56
2022-08-07T05:02:57.895Z,95933.56
2022-08-07T05:05:52.791Z,95947.06
2022-08-07T05:08:59.713Z,95939.97
2022-08-07T05:11:19.759Z,95935.53
2022-08-07T05:14:54.220Z,95946.56
2022-08-07T05:16:53.005Z,95931.41
2022-08-07T05:19:44.005Z,95940.81
2022-08-07T05:22:19.027Z,95941.47
2022-08-07T05:24:59.508Z,95938.53
2022-08-07T05:28:03.029Z,95942.31
2022-08-07T05:30:29.926Z,95947.25
2022-08-07T05:33:03.342Z,95949.88
2022-08-07T05:35:41.586Z,95943.00
2022-08-07T05:38:10.971Z,95947.09
2022-08-07T05:40:42.783Z,95947.22
2022-08-07T05:43:19.833Z,95942.78
2022-08-07T05:46:08.139Z,95943.13
2022-08-07T05:48:36.485Z,95945.75
2022-08-07T05:51:31.814Z,95945.94
2022-08-07T05:54:12.140Z,95940.16
2022-08-07T05:56:51.419Z,95949.06
2022-08-07T05:59:22.038Z,95942.78
2022-08-07T06:01:51.591Z,95942.16
2022-08-07T06:04:22.436Z,95944.63
2022-08-07T06:07:04.415Z,95941.34
2022-08-07T06:09:44.918Z,95948.13
2022-08-07T06:12:31.767Z,95944.31
2022-08-07T06:15:05.563Z,95946.81
2022-08-07T06:17:37.578Z,95947.47
2022-08-07T06:20:12.776Z,95943.88
2022-08-07T06:23:02.188Z,95950.44
2022-08-07T06:25:54.712Z,95952.75
2022-08-07T06:28:27.689Z,95945.50
2022-08-07T06:30:58.299Z,95948.63
2022-08-07T06:33:27.220Z,95946.19
2022-08-07T06:36:12.918Z,95940.06
2022-08-07T06:38:51.669Z,95942.69
2022-08-07T06:42:00.879Z,95951.75
2022-08-07T06:44:26.122Z,95946.81
2022-08-07T06:47:09.812Z,95951.28
2022-08-07T06:49:50.752Z,95955.06
2022-08-07T06:52:31.419Z,95953.25
2022-08-07T06:55:33.101Z,95949.59
2022-08-07T06:57:58.318Z,95953.22
2022-08-07T07:00:28.300Z,95950.59
2022-08-07T07:03:00.918Z,95950.25
2022-08-07T07:06:03.307Z,95945.69
2022-08-07T07:08:27.683Z,95947.81
2022-08-07T07:10:57.864Z,95948.13
2022-08-07T07:13:55.985Z,95941.69
2022-08-07T07:16:27.509Z,95955.22
2022-08-07T07:19:00.745Z,95951.72
2022-08-07T07:22:04.812Z,95953.19
2022-08-07T07:24:32.295Z,95951.88
2022-08-07T07:27:04.391Z,95937.38
2022-08-07T07:29:57.196Z,95941.16
2022-08-07T07:32:26.164Z,95937.84
2022-08-07T07:34:57.828Z,95935.16
2022-08-07T07:37:47.323Z,95930.91
2022-08-07T07:40:21.479Z,95932.09
2022-08-07T07:42:58.596Z,95923.81
2022-08-07T07:46:37.035Z,95927.75
2022-08-07T07:48:35.699Z,95926.44
2022-08-07T07:51:08.152Z,95912.06
2022-08-07T07:53:51.849Z,95918.81
2022-08-07T07:56:30.036Z,95921.28
2022-08-07T07:59:02.134Z,95918.19
2022-08-07T08:02:03.775Z,95916.31
2022-08-07T08:04:25.842Z,95922.44
2022-08-07T08:06:56.460Z,95920.72
2022-08-07T08:09:30.695Z,95914.63
2022-08-07T08:12:50.128Z,95922.94
2022-08-07T08:15:09.993Z,95923.97
2022-08-07T08:17:57.160Z,95924.63
2022-08-07T08:20:32.127Z,95920.69
2022-08-07T08:23:18.372Z,95916.84
2022-08-07T08:26:10.269Z,95919.78
2022-08-07T08:28:43.375Z,95917.34
2022-08-07T08:31:30.151Z,95925.19
2022-08-07T08:34:09.767Z,95923.19
2022-08-07T08:36:46.145Z,95929.66
2022-08-07T08:39:15.349Z,95920.75
2022-08-07T08:41:57.556Z,95918.25
2022-08-07T08:44:33.168Z,95910.66
2022-08-07T08:47:09.818Z,95916.19
2022-08-07T08:50:02.239Z,95921.72
2022-08-07T08:52:40.775Z,95920.31
2022-08-07T08:55:55.238Z,95913.50
2022-08-07T08:58:28.407Z,95900.31
2022-08-07T09:01:15.304Z,95916.66
2022-08-07T09:03:53.251Z,95913.59
2022-08-07T09:06:47.853Z,95917.81
2022-08-07T09:09:36.538Z,95915.34
2022-08-07T09:12:30.606Z,95922.50
2022-08-07T09:16:23.336Z,95912.22
2022-08-07T09:18:22.285Z,95919.56
2022-08-07T09:21:06.888Z,95913.00
2022-08-07T09:24:31.665Z,95912.94
2022-08-07T09:26:57.002Z,95903.63
2022-08-07T09:30:03.991Z,95909.47
2022-08-07T09:32:38.792Z,95911.00
2022-08-07T09:36:03.026Z,95918.13
2022-08-07T09:38:17.958Z,95911.38
2022-08-07T09:41:01.338Z,95909.47
2022-08-07T09:44:05.569Z,95908.81
2022-08-07T09:47:49.767Z,95902.34
2022-08-07T09:50:02.859Z,95894.78
2022-08-07T09:52:51.899Z,95892.84
2022-08-07T09:55:29.590Z,95886.81
2022-08-07T09:58:32.279Z,95896.06
2022-08-07T10:01:51.200Z,95894.66
2022-08-07T10:04:32.896Z,95885.81
2022-08-07T10:07:24.144Z,95894.94
2022-08-07T10:10:22.899Z,95892.38
2022-08-07T10:16:29.611Z,95888.81
2022-08-07T10:19:25.178Z,95879.06
2022-08-07T10:22:15.636Z,95879.44
2022-08-07T10:24:55.204Z,95871.81
2022-08-07T10:27:46.598Z,95876.56
2022-08-07T10:40:48.481Z,95869.19
2022-08-07T10:43:34.173Z,95876.13
2022-08-07T10:46:10.333Z,95868.03
2022-08-07T10:48:48.575Z,95867.22
2022-08-07T10:51:57.395Z,95865.28
2022-08-07T10:54:27.142Z,95861.16
2022-08-07T10:57:11.497Z,95868.19
2022-08-07T11:00:03.348Z,95864.84
2022-08-07T11:02:40.251Z,95863.44
2022-08-07T11:05:20.009Z,95866.81
2022-08-07T11:08:03.517Z,95864.38
2022-08-07T11:10:39.235Z,95866.22
2022-08-07T11:14:42.272Z,95867.16
2022-08-07T11:16:07.512Z,95864.78
2022-08-07T11:18:42.408Z,95865.94
2022-08-07T11:21:15.951Z,95868.06
2022-08-07T11:23:53.799Z,95861.78
2022-08-07T11:26:28.158Z,95864.56
2022-08-07T11:29:05.731Z,95857.34
2022-08-07T11:31:47.834Z,95855.09
2022-08-07T11:34:29.548Z,95854.66
2022-08-07T11:37:06.689Z,95849.09
2022-08-07T11:40:01.060Z,95856.50
2022-08-07T11:42:40.824Z,95849.66
2022-08-07T11:45:20.693Z,95847.75
2022-08-07T11:48:13.837Z,95848.88
2022-08-07T11:51:01.506Z,95843.00
2022-08-07T11:57:20.563Z,95842.00
2022-08-07T13:37:29.182Z,95785.28
2022-08-07T13:40:35.354Z,95786.41
2022-08-07T13:43:11.941Z,95781.31
2022-08-07T13:46:12.413Z,95770.13
2022-08-07T13:48:34.716Z,95778.56
2022-08-07T13:51:27.737Z,95774.06
2022-08-07T13:54:01.620Z,95779.28
2022-08-07T13:56:35.548Z,95766.78
2022-08-07T13:59:13.021Z,95762.94
2022-08-07T14:01:59.259Z,95765.75
2022-08-07T14:04:35.724Z,95764.34
2022-08-07T14:07:09.425Z,95758.47
2022-08-07T14:10:02.191Z,95758.91
2022-08-07T14:12:41.566Z,95754.06
2022-08-07T14:15:18.560Z,95763.75
2022-08-07T14:18:24.187Z,95752.00
2022-08-07T14:20:42.806Z,95752.81
2022-08-07T14:23:31.580Z,95756.25
2022-08-07T14:26:28.638Z,95757.53
2022-08-07T14:29:05.928Z,95755.28
2022-08-07T14:31:53.439Z,95757.03
2022-08-07T14:34:29.716Z,95759.47
2022-08-07T14:37:01.604Z,95759.47
2022-08-07T14:40:17.800Z,95756.81
2022-08-07T14:42:27.606Z,95762.75
2022-08-07T14:45:21.934Z,95760.28
2022-08-07T14:47:58.512Z,95749.22
2022-08-07T14:50:37.520Z,95753.16
2022-08-07T14:53:09.668Z,95753.94
2022-08-07T14:58:32.699Z,95744.50
2022-08-07T15:04:12.399Z,95751.47
2022-08-07T15:06:40.591Z,95743.50
2022-08-07T15:12:08.835Z,95744.09
2022-08-07T15:17:33.056Z,95748.31
2022-08-07T15:20:32.723Z,95748.53
2022-08-07T15:28:35.039Z,95740.94
2022-08-07T15:31:12.231Z,95746.47
2022-08-07T15:34:01.257Z,95749.34
2022-08-07T15:37:02.942Z,95744.63
2022-08-07T15:39:16.223Z,95737.50
2022-08-07T15:42:44.540Z,95739.78
2022-08-07T15:47:59.899Z,95742.44
2022-08-07T15:53:51.574Z,95744.66
2022-08-07T15:56:16.994Z,95742.19
2022-08-07T15:58:52.165Z,95737.03
2022-08-07T16:01:38.802Z,95739.69
2022-08-07T16:04:14.529Z,95739.31
2022-08-07T16:06:49.940Z,95741.13
2022-08-07T16:09:23.163Z,95732.97
2022-08-07T16:12:04.467Z,95737.81
2022-08-07T16:14:50.158Z,95738.81
2022-08-07T16:18:02.470Z,95733.56
2022-08-07T16:20:55.146Z,95739.13
2022-08-07T16:23:58.841Z,95738.84
2022-08-07T16:26:59.258Z,95737.22
2022-08-07T16:30:11.264Z,95738.66
2022-08-07T16:32:46.503Z,95742.81
2022-08-07T16:35:51.471Z,95734.38
2022-08-07T16:38:59.930Z,95740.66
2022-08-07T16:41:53.978Z,95735.78
2022-08-07T16:44:57.245Z,95736.56
2022-08-07T16:47:56.887Z,95741.03
2022-08-07T16:50:52.644Z,95732.25
2022-08-07T16:54:02.226Z,95738.66
2022-08-07T16:56:50.124Z,95736.41
2022-08-07T16:59:46.566Z,95743.09
2022-08-07T17:02:52.366Z,95741.47
2022-08-07T17:06:18.945Z,95746.53
2022-08-07T17:09:08.835Z,95753.63
2022-08-07T17:12:05.360Z,95740.16
2022-08-07T17:14:33.632Z,95749.97
2022-08-07T17:17:07.405Z,95743.44
2022-08-07T17:20:02.512Z,95751.53
2022-08-07T17:22:37.995Z,95754.41
2022-08-07T17:25:11.730Z,95746.22
2022-08-07T17:27:51.758Z,95754.47
2022-08-07T17:30:26.631Z,95750.50
2022-08-07T17:34:08.496Z,95742.22
2022-08-07T17:36:00.464Z,95744.31
2022-08-07T17:38:35.484Z,95756.03
2022-08-07T17:42:02.664Z,95750.31
2022-08-07T17:44:05.914Z,95757.91
2022-08-07T17:46:44.385Z,95757.56
2022-08-07T17:49:24.460Z,95750.56
2022-08-07T17:52:00.710Z,95754.53
2022-08-07T17:54:54.022Z,95756.56
2022-08-07T17:57:56.095Z,95751.72
2022-08-07T18:00:33.304Z,95761.47
2022-08-07T18:03:18.553Z,95756.72
2022-08-07T18:06:03.489Z,95752.94
2022-08-07T18:09:01.121Z,95757.56
2022-08-07T18:12:06.877Z,95752.06
2022-08-07T18:14:37.323Z,95748.53
2022-08-07T18:17:11.098Z,95750.06
2022-08-07T18:21:09.617Z,95755.66
2022-08-07T18:22:40.205Z,95762.09
2022-08-07T18:25:19.137Z,95769.94
2022-08-07T18:28:34.166Z,95773.00
2022-08-07T18:31:05.439Z,95771.00
2022-08-07T18:34:04.969Z,95773.25
2022-08-07T18:37:09.237Z,95774.66
2022-08-07T18:40:06.518Z,95783.16
2022-08-07T18:42:44.136Z,95778.47
2022-08-07T18:45:43.341Z,95793.25
2022-08-07T18:48:10.156Z,95797.75
2022-08-07T18:51:09.687Z,95797.44
2022-08-07T18:53:57.701Z,95805.00
2022-08-07T18:56:35.824Z,95807.75
2022-08-07T18:59:48.004Z,95809.66
2022-08-07T19:02:42.183Z,95821.28
2022-08-07T19:05:21.303Z,95827.19
2022-08-07T19:07:59.287Z,95837.59
2022-08-07T19:10:49.832Z,95842.53
2022-08-07T19:13:27.420Z,95841.28
2022-08-07T19:16:04.353Z,95839.38
2022-08-07T19:18:59.294Z,95844.16
2022-08-07T19:21:51.305Z,95845.72
2022-08-07T19:24:30.855Z,95839.41
2022-08-07T19:28:30.305Z,95844.28
2022-08-07T19:31:01.228Z,95834.94
2022-08-07T19:32:46.376Z,95834.19
2022-08-07T19:35:22.370Z,95835.56
2022-08-07T19:37:57.827Z,95843.44
2022-08-07T19:40:31.755Z,95846.09
2022-08-07T19:43:10.629Z,95835.94
2022-08-07T19:46:09.474Z,95837.06
2022-08-07T19:48:43.642Z,95845.75
2022-08-07T19:51:20.251Z,95846.38
2022-08-07T19:54:32.175Z,95851.00
2022-08-07T19:57:51.656Z,95847.72
2022-08-07T19:59:41.159Z,95848.03
2022-08-07T20:02:19.692Z,95846.09
2022-08-07T20:04:51.866Z,95848.22
2022-08-07T20:07:47.637Z,95848.97
2022-08-07T20:10:37.332Z,95849.97
2022-08-07T20:13:22.366Z,95840.75
2022-08-07T20:15:51.119Z,95840.94
2022-08-07T20:18:32.841Z,95835.06
2022-08-07T20:21:21.063Z,95831.25
2022-08-07T20:23:57.982Z,95838.16
2022-08-07T20:26:38.514Z,95829.78
2022-08-07T20:29:47.051Z,95841.56
2022-08-07T20:32:00.629Z,95837.25
2022-08-07T20:34:49.237Z,95836.00
2022-08-07T20:37:24.163Z,95829.06
2022-08-07T20:40:04.058Z,95831.34
2022-08-07T20:42:35.308Z,95827.81
2022-08-07T20:45:33.419Z,95826.97
2022-08-07T20:47:58.288Z,95824.88
2022-08-07T20:50:31.666Z,95829.63
2022-08-07T20:53:00.255Z,95822.03
2022-08-07T20:55:31.972Z,95829.97
2022-08-07T20:58:03.880Z,95825.00
2022-08-07T21:00:42.638Z,95818.34
2022-08-07T21:03:15.200Z,95821.81
2022-08-07T21:05:54.937Z,95831.13
2022-08-07T21:08:36.910Z,95829.44
2022-08-07T21:11:12.261Z,95825.97
2022-08-07T21:14:16.665Z,95831.72
2022-08-07T21:16:55.896Z,95840.19
2022-08-07T21:19:31.886Z,95833.09
2022-08-07T21:22:05.211Z,95832.50
2022-08-07T21:24:48.081Z,95829.16
2022-08-07T21:27:25.651Z,95829.88
2022-08-07T21:30:01.225Z,95833.34
2022-08-07T21:32:46.756Z,95833.97
2022-08-07T21:36:04.216Z,95831.69
2022-08-07T21:38:21.551Z,95831.75
2022-08-07T21:41:01.846Z,95830.34
2022-08-07T21:43:55.567Z,95831.97
2022-08-07T21:46:31.829Z,95830.16
2022-08-07T21:49:14.578Z,95833.91
2022-08-07T21:51:59.383Z,95837.00
2022-08-07T21:54:37.415Z,95831.63
2022-08-07T21:57:39.452Z,95842.56
2022-08-07T22:00:22.750Z,95845.47
2022-08-07T22:03:00.058Z,95841.94
2022-08-07T22:05:45.333Z,95839.84
2022-08-07T22:08:18.902Z,95851.97
2022-08-07T22:10:50.728Z,95844.97
2022-08-07T22:13:24.656Z,95847.38
2022-08-07T22:16:43.462Z,95849.34
2022-08-07T22:19:08.172Z,95842.44
2022-08-07T22:22:01.742Z,95853.75
2022-08-07T22:24:37.701Z,95841.47
2022-08-07T22:27:13.605Z,95851.84
2022-08-07T22:29:49.592Z,95847.31
2022-08-07T22:32:25.340Z,95843.97
2022-08-07T22:34:55.372Z,95846.31
2022-08-07T22:38:02.954Z,95849.69
2022-08-07T22:40:30.710Z,95855.66
2022-08-07T22:43:06.250Z,95857.75
2022-08-07T22:46:21.185Z,95860.75
2022-08-07T22:49:06.688Z,95860.84
2022-08-07T22:51:51.989Z,95862.47
2022-08-07T22:54:52.275Z,95871.84
2022-08-07T22:57:45.667Z,95870.50
2022-08-07T23:00:18.871Z,95858.94
2022-08-07T23:03:03.572Z,95854.56
2022-08-07T23:06:06.874Z,95861.69
2022-08-07T23:08:54.535Z,95857.03
2022-08-07T23:11:41.233Z,95854.03
2022-08-07T23:14:27.900Z,95856.00
2022-08-07T23:17:21.653Z,95855.56
2022-08-07T23:20:18.732Z,95847.63
2022-08-07T23:23:00.909Z,95851.53
2022-08-07T23:25:38.946Z,95849.47
2022-08-07T23:28:29.388Z,95856.38
2022-08-07T23:31:18.811Z,95863.78
2022-08-07T23:34:37.605Z,95848.28
2022-08-07T23:37:33.599Z,95845.19
2022-08-07T23:40:15.685Z,95845.28
2022-08-07T23:43:01.810Z,95839.66
2022-08-07T23:46:03.328Z,95841.47
2022-08-07T23:48:41.792Z,95847.00
2022-08-07T23:53:01.866Z,95846.19
2022-08-07T23:54:36.106Z,95844.75
2022-08-07T23:57:22.199Z,95839.41
